Terminal Aerodrome Forecast
Issued by NWS Wichita, KS

Home | Current Version | Previous Version | Text Only | Print | Product List | Glossary On
Versions: 1 2 3 4 5 6 7 8 9 10 11 12 13 14 15 16 17
000
FTUS43 KICT 230500
TAFICT
TAF
KICT 230520Z 2306/2406 18008KT P6SM BKN060 OVC100
     FM231000 19005KT P6SM OVC030
     FM231300 20005KT 4SM BR OVC007
     FM231700 18010KT P6SM BKN025=

USA.gov is the U.S. government's official web portal to all federal, state and local government web resources and services.